sensor_id;sensor_type;location;lat;lon;timestamp;temperature;humidity
1936;DHT22;969;49.892;10.896;2023-02-05T09:07:19;14.30;45.00
1936;DHT22;969;49.892;10.896;2023-02-05T09:09:45;14.30;45.00
1936;DHT22;969;49.892;10.896;2023-02-05T09:12:10;14.30;45.00
1936;DHT22;969;49.892;10.896;2023-02-05T09:14:37;14.30;44.90
1936;DHT22;969;49.892;10.896;2023-02-05T09:17:04;14.30;44.90
1936;DHT22;969;49.892;10.896;2023-02-05T09:19:33;14.30;44.90
1936;DHT22;969;49.892;10.896;2023-02-05T09:21:59;14.30;44.90
1936;DHT22;969;49.892;10.896;2023-02-05T09:24:25;14.30;43.10
1936;DHT22;969;49.892;10.896;2023-02-05T09:26:51;14.20;41.20
1936;DHT22;969;49.892;10.896;2023-02-05T09:29:16;14.20;41.90
1936;DHT22;969;49.892;10.896;2023-02-05T09:31:42;14.10;42.80
1936;DHT22;969;49.892;10.896;2023-02-05T09:34:07;14.10;43.10
1936;DHT22;969;49.892;10.896;2023-02-05T09:36:33;14.10;43.30
1936;DHT22;969;49.892;10.896;2023-02-05T09:38:59;14.10;43.40
1936;DHT22;969;49.892;10.896;2023-02-05T09:41:29;14.20;43.60
1936;DHT22;969;49.892;10.896;2023-02-05T09:44:20;14.30;43.60
1936;DHT22;969;49.892;10.896;2023-02-05T09:47:02;14.40;43.60
1936;DHT22;969;49.892;10.896;2023-02-05T09:49:39;14.60;43.60
1936;DHT22;969;49.892;10.896;2023-02-05T09:52:32;14.70;43.40
1936;DHT22;969;49.892;10.896;2023-02-05T09:58:05;15.00;43.10
1936;DHT22;969;49.892;10.896;2023-02-05T10:03:22;15.30;42.90
1936;DHT22;969;49.892;10.896;2023-02-05T10:19:48;15.80;42.40
1936;DHT22;969;49.892;10.896;2023-02-05T10:22:37;15.90;42.40
1936;DHT22;969;49.892;10.896;2023-02-05T10:26:04;16.00;42.90
1936;DHT22;969;49.892;10.896;2023-02-05T10:28:34;16.10;42.60
1936;DHT22;969;49.892;10.896;2023-02-05T10:36:39;16.20;42.60
1936;DHT22;969;49.892;10.896;2023-02-05T10:39:13;16.20;42.50
1936;DHT22;969;49.892;10.896;2023-02-05T10:42:00;16.30;42.40
1936;DHT22;969;49.892;10.896;2023-02-05T10:44:33;16.30;42.20
1936;DHT22;969;49.892;10.896;2023-02-05T10:47:17;16.40;42.30
1936;DHT22;969;49.892;10.896;2023-02-05T10:52:18;16.40;42.10
1936;DHT22;969;49.892;10.896;2023-02-05T10:54:45;16.50;42.10
1936;DHT22;969;49.892;10.896;2023-02-05T10:57:19;16.50;42.00
1936;DHT22;969;49.892;10.896;2023-02-05T10:59:55;16.50;42.00
1936;DHT22;969;49.892;10.896;2023-02-05T11:02:33;16.60;42.00
1936;DHT22;969;49.892;10.896;2023-02-05T11:05:06;16.60;42.00
1936;DHT22;969;49.892;10.896;2023-02-05T11:07:37;16.60;42.10
1936;DHT22;969;49.892;10.896;2023-02-05T11:12:43;16.60;42.00
1936;DHT22;969;49.892;10.896;2023-02-05T11:15:28;16.60;42.00
1936;DHT22;969;49.892;10.896;2023-02-05T11:17:57;16.60;42.00
1936;DHT22;969;49.892;10.896;2023-02-05T11:20:30;16.60;42.00
1936;DHT22;969;49.892;10.896;2023-02-05T11:23:17;16.50;41.90
1936;DHT22;969;49.892;10.896;2023-02-05T11:25:53;16.60;42.00
1936;DHT22;969;49.892;10.896;2023-02-05T11:28:30;16.50;42.00
1936;DHT22;969;49.892;10.896;2023-02-05T11:30:57;16.50;42.00
1936;DHT22;969;49.892;10.896;2023-02-05T11:33:34;16.50;42.00
1936;DHT22;969;49.892;10.896;2023-02-05T11:36:00;16.50;42.00
1936;DHT22;969;49.892;10.896;2023-02-05T11:38:41;16.50;42.10
1936;DHT22;969;49.892;10.896;2023-02-05T11:41:07;16.50;42.10
1936;DHT22;969;49.892;10.896;2023-02-05T11:43:36;16.50;42.20
1936;DHT22;969;49.892;10.896;2023-02-05T11:46:06;16.50;42.20
1936;DHT22;969;49.892;10.896;2023-02-05T11:48:39;16.40;42.10
1936;DHT22;969;49.892;10.896;2023-02-05T11:51:09;16.40;42.20
1936;DHT22;969;49.892;10.896;2023-02-05T11:53:36;16.40;42.20
1936;DHT22;969;49.892;10.896;2023-02-05T11:56:08;16.40;42.20
1936;DHT22;969;49.892;10.896;2023-02-05T11:58:35;16.40;42.20
1936;DHT22;969;49.892;10.896;2023-02-05T12:01:19;16.40;42.20
1936;DHT22;969;49.892;10.896;2023-02-05T12:03:59;16.40;42.20
1936;DHT22;969;49.892;10.896;2023-02-05T12:06:30;16.40;42.30
1936;DHT22;969;49.892;10.896;2023-02-05T12:08:59;16.40;42.30
1936;DHT22;969;49.892;10.896;2023-02-05T12:14:51;16.40;42.30
1936;DHT22;969;49.892;10.896;2023-02-05T12:17:24;16.40;42.40
1936;DHT22;969;49.892;10.896;2023-02-05T12:19:55;16.30;42.30
1936;DHT22;969;49.892;10.896;2023-02-05T12:35:46;16.40;42.40
1936;DHT22;969;49.892;10.896;2023-02-05T12:38:40;16.30;42.40
1936;DHT22;969;49.892;10.896;2023-02-05T12:47:11;16.30;42.40
1936;DHT22;969;49.892;10.896;2023-02-05T12:49:54;16.40;42.50
1936;DHT22;969;49.892;10.896;2023-02-05T12:58:02;16.30;42.50
1936;DHT22;969;49.892;10.896;2023-02-05T13:00:38;16.40;42.60
1936;DHT22;969;49.892;10.896;2023-02-05T13:05:54;16.30;42.50
1936;DHT22;969;49.892;10.896;2023-02-05T13:12:14;16.40;42.60
1936;DHT22;969;49.892;10.896;2023-02-05T13:14:59;16.30;42.50
1936;DHT22;969;49.892;10.896;2023-02-05T13:17:29;16.30;42.60
1936;DHT22;969;49.892;10.896;2023-02-05T13:20:00;16.30;42.60
1936;DHT22;969;49.892;10.896;2023-02-05T13:23:02;16.30;42.50
1936;DHT22;969;49.892;10.896;2023-02-05T13:25:48;16.40;42.60
1936;DHT22;969;49.892;10.896;2023-02-05T13:28:40;16.30;43.10
1936;DHT22;969;49.892;10.896;2023-02-05T13:31:17;16.40;42.60
1936;DHT22;969;49.892;10.896;2023-02-05T13:33:44;16.40;42.60
1936;DHT22;969;49.892;10.896;2023-02-05T13:39:02;16.40;42.60
1936;DHT22;969;49.892;10.896;2023-02-05T13:44:23;16.30;42.50
1936;DHT22;969;49.892;10.896;2023-02-05T13:50:48;16.40;42.50
1936;DHT22;969;49.892;10.896;2023-02-05T13:53:59;16.40;42.60
1936;DHT22;969;49.892;10.896;2023-02-05T13:59:40;16.40;42.70
1936;DHT22;969;49.892;10.896;2023-02-05T14:05:03;16.40;42.60
1936;DHT22;969;49.892;10.896;2023-02-05T14:07:45;16.40;42.60
1936;DHT22;969;49.892;10.896;2023-02-05T14:10:32;16.40;42.70
1936;DHT22;969;49.892;10.896;2023-02-05T14:13:21;16.40;42.60
1936;DHT22;969;49.892;10.896;2023-02-05T14:15:49;16.40;42.60
1936;DHT22;969;49.892;10.896;2023-02-05T14:27:03;16.40;42.60
1936;DHT22;969;49.892;10.896;2023-02-05T14:29:47;16.40;42.60
1936;DHT22;969;49.892;10.896;2023-02-05T14:35:39;16.50;43.00
1936;DHT22;969;49.892;10.896;2023-02-05T14:37:46;16.40;42.90
1936;DHT22;969;49.892;10.896;2023-02-05T14:40:21;16.40;42.80
1936;DHT22;969;49.892;10.896;2023-02-05T14:42:49;16.40;42.80
1936;DHT22;969;49.892;10.896;2023-02-05T14:45:17;16.40;42.80
1936;DHT22;969;49.892;10.896;2023-02-05T14:47:45;16.50;42.80
1936;DHT22;969;49.892;10.896;2023-02-05T14:50:22;16.40;42.70
1936;DHT22;969;49.892;10.896;2023-02-05T14:52:56;16.50;42.80
1936;DHT22;969;49.892;10.896;2023-02-05T14:55:41;16.50;42.80
1936;DHT22;969;49.892;10.896;2023-02-05T14:58:27;16.50;42.80
1936;DHT22;969;49.892;10.896;2023-02-05T15:03:59;16.50;43.10
1936;DHT22;969;49.892;10.896;2023-02-05T15:06:37;16.40;43.40
1936;DHT22;969;49.892;10.896;2023-02-05T15:09:10;16.40;43.40
1936;DHT22;969;49.892;10.896;2023-02-05T15:16:46;16.40;43.30
1936;DHT22;969;49.892;10.896;2023-02-05T15:19:14;16.40;43.30
1936;DHT22;969;49.892;10.896;2023-02-05T15:21:45;16.40;43.60
1936;DHT22;969;49.892;10.896;2023-02-05T15:24:22;16.50;44.80
1936;DHT22;969;49.892;10.896;2023-02-05T15:26:55;16.50;46.00
1936;DHT22;969;49.892;10.896;2023-02-05T15:29:34;16.50;46.10
1936;DHT22;969;49.892;10.896;2023-02-05T15:32:06;16.50;46.20
1936;DHT22;969;49.892;10.896;2023-02-05T15:37:21;16.50;45.80
1936;DHT22;969;49.892;10.896;2023-02-05T15:42:43;16.60;46.50
1936;DHT22;969;49.892;10.896;2023-02-05T15:45:29;16.60;46.70
1936;DHT22;969;49.892;10.896;2023-02-05T15:53:25;16.70;46.10
1936;DHT22;969;49.892;10.896;2023-02-05T15:55:55;16.70;45.90
1936;DHT22;969;49.892;10.896;2023-02-05T15:58:23;16.70;45.70
1936;DHT22;969;49.892;10.896;2023-02-05T16:00:50;16.70;45.60
1936;DHT22;969;49.892;10.896;2023-02-05T16:03:32;16.70;45.80
1936;DHT22;969;49.892;10.896;2023-02-05T16:05:58;16.70;45.70
1936;DHT22;969;49.892;10.896;2023-02-05T16:08:25;16.70;45.60
1936;DHT22;969;49.892;10.896;2023-02-05T16:10:59;16.70;45.50
1936;DHT22;969;49.892;10.896;2023-02-05T16:13:29;16.70;45.40
1936;DHT22;969;49.892;10.896;2023-02-05T16:21:26;16.80;45.10
1936;DHT22;969;49.892;10.896;2023-02-05T16:24:06;16.80;45.40
1936;DHT22;969;49.892;10.896;2023-02-05T16:26:35;16.90;45.90
1936;DHT22;969;49.892;10.896;2023-02-05T16:29:05;16.90;46.10
1936;DHT22;969;49.892;10.896;2023-02-05T16:31:33;17.00;46.00
1936;DHT22;969;49.892;10.896;2023-02-05T16:34:13;17.00;46.00
1936;DHT22;969;49.892;10.896;2023-02-05T16:36:45;17.10;46.00
1936;DHT22;969;49.892;10.896;2023-02-05T16:39:37;17.10;45.70
1936;DHT22;969;49.892;10.896;2023-02-05T16:42:13;17.20;45.80
1936;DHT22;969;49.892;10.896;2023-02-05T16:44:48;17.20;45.60
1936;DHT22;969;49.892;10.896;2023-02-05T16:47:14;17.20;45.50
1936;DHT22;969;49.892;10.896;2023-02-05T16:49:41;17.30;45.40
1936;DHT22;969;49.892;10.896;2023-02-05T16:52:29;17.30;45.50
1936;DHT22;969;49.892;10.896;2023-02-05T16:55:06;17.30;45.30
1936;DHT22;969;49.892;10.896;2023-02-05T16:57:45;17.30;45.10
1936;DHT22;969;49.892;10.896;2023-02-05T17:00:20;17.30;45.00
1936;DHT22;969;49.892;10.896;2023-02-05T17:02:52;17.40;45.60
1936;DHT22;969;49.892;10.896;2023-02-05T17:05:21;17.40;45.10
1936;DHT22;969;49.892;10.896;2023-02-05T17:08:03;17.40;45.00
1936;DHT22;969;49.892;10.896;2023-02-05T17:10:30;17.40;44.90
1936;DHT22;969;49.892;10.896;2023-02-05T17:12:57;17.40;45.00
1936;DHT22;969;49.892;10.896;2023-02-05T17:15:26;17.40;45.00
1936;DHT22;969;49.892;10.896;2023-02-05T17:17:54;17.40;45.00
1936;DHT22;969;49.892;10.896;2023-02-05T17:20:25;17.40;44.90
1936;DHT22;969;49.892;10.896;2023-02-05T17:27:57;17.50;44.70
1936;DHT22;969;49.892;10.896;2023-02-05T17:30:23;17.40;44.60
1936;DHT22;969;49.892;10.896;2023-02-05T17:32:48;17.50;44.70
1936;DHT22;969;49.892;10.896;2023-02-05T17:35:17;17.40;44.60
1936;DHT22;969;49.892;10.896;2023-02-05T17:37:42;17.40;45.30
1936;DHT22;969;49.892;10.896;2023-02-05T17:40:11;17.50;45.80
1936;DHT22;969;49.892;10.896;2023-02-05T17:42:37;17.50;46.20
1936;DHT22;969;49.892;10.896;2023-02-05T17:45:18;17.50;45.90
1936;DHT22;969;49.892;10.896;2023-02-05T17:47:44;17.50;45.80
1936;DHT22;969;49.892;10.896;2023-02-05T17:50:10;17.50;45.80
1936;DHT22;969;49.892;10.896;2023-02-05T17:52:36;17.60;45.60
1936;DHT22;969;49.892;10.896;2023-02-05T17:55:05;17.60;45.50
1936;DHT22;969;49.892;10.896;2023-02-05T17:57:34;17.60;45.40
1936;DHT22;969;49.892;10.896;2023-02-05T18:00:01;17.60;45.30
1936;DHT22;969;49.892;10.896;2023-02-05T18:02:26;17.60;45.20
1936;DHT22;969;49.892;10.896;2023-02-05T18:04:52;17.60;45.10
1936;DHT22;969;49.892;10.896;2023-02-05T18:07:31;17.60;45.00
1936;DHT22;969;49.892;10.896;2023-02-05T18:09:58;17.60;44.90
1936;DHT22;969;49.892;10.896;2023-02-05T18:12:26;17.60;44.90
1936;DHT22;969;49.892;10.896;2023-02-05T18:14:53;17.60;44.80
1936;DHT22;969;49.892;10.896;2023-02-05T18:17:19;17.50;44.70
1936;DHT22;969;49.892;10.896;2023-02-05T18:19:44;17.60;44.80
1936;DHT22;969;49.892;10.896;2023-02-05T18:22:10;17.50;44.70
1936;DHT22;969;49.892;10.896;2023-02-05T18:24:37;17.50;44.70
1936;DHT22;969;49.892;10.896;2023-02-05T18:27:07;17.50;44.70
1936;DHT22;969;49.892;10.896;2023-02-05T18:29:36;17.50;44.60
1936;DHT22;969;49.892;10.896;2023-02-05T18:32:02;17.50;44.60
1936;DHT22;969;49.892;10.896;2023-02-05T18:34:28;17.50;44.60
1936;DHT22;969;49.892;10.896;2023-02-05T18:36:54;17.50;44.50
1936;DHT22;969;49.892;10.896;2023-02-05T18:39:20;17.50;44.50
1936;DHT22;969;49.892;10.896;2023-02-05T18:41:45;17.50;44.40
1936;DHT22;969;49.892;10.896;2023-02-05T18:44:11;17.40;44.40
1936;DHT22;969;49.892;10.896;2023-02-05T18:46:37;17.40;44.30
1936;DHT22;969;49.892;10.896;2023-02-05T18:49:03;17.40;44.30
1936;DHT22;969;49.892;10.896;2023-02-05T18:51:28;17.40;44.40
1936;DHT22;969;49.892;10.896;2023-02-05T18:53:55;17.40;44.40
1936;DHT22;969;49.892;10.896;2023-02-05T18:56:23;17.40;44.40
1936;DHT22;969;49.892;10.896;2023-02-05T18:58:57;17.30;44.30
1936;DHT22;969;49.892;10.896;2023-02-05T19:01:25;17.30;44.30
1936;DHT22;969;49.892;10.896;2023-02-05T19:03:53;17.30;44.30
1936;DHT22;969;49.892;10.896;2023-02-05T19:06:20;17.30;44.30
1936;DHT22;969;49.892;10.896;2023-02-05T19:08:46;17.30;44.30
1936;DHT22;969;49.892;10.896;2023-02-05T19:11:18;17.30;44.30
1936;DHT22;969;49.892;10.896;2023-02-05T19:13:45;17.30;44.30
1936;DHT22;969;49.892;10.896;2023-02-05T19:16:13;17.20;44.20
1936;DHT22;969;49.892;10.896;2023-02-05T19:18:40;17.20;44.20
1936;DHT22;969;49.892;10.896;2023-02-05T19:21:09;17.20;44.10
1936;DHT22;969;49.892;10.896;2023-02-05T19:23:35;17.20;44.10
1936;DHT22;969;49.892;10.896;2023-02-05T19:26:07;17.20;44.10
1936;DHT22;969;49.892;10.896;2023-02-05T19:28:33;17.20;44.10
1936;DHT22;969;49.892;10.896;2023-02-05T19:31:03;17.20;44.10
1936;DHT22;969;49.892;10.896;2023-02-05T19:33:32;17.20;44.10
1936;DHT22;969;49.892;10.896;2023-02-05T19:35:59;17.20;44.10
1936;DHT22;969;49.892;10.896;2023-02-05T19:38:26;17.20;44.10
1936;DHT22;969;49.892;10.896;2023-02-05T19:40:52;17.20;44.10
1936;DHT22;969;49.892;10.896;2023-02-05T19:43:17;17.20;44.10
1936;DHT22;969;49.892;10.896;2023-02-05T19:45:44;17.20;44.10
1936;DHT22;969;49.892;10.896;2023-02-05T19:48:11;17.20;44.10
1936;DHT22;969;49.892;10.896;2023-02-05T19:50:37;17.10;44.00
1936;DHT22;969;49.892;10.896;2023-02-05T19:53:04;17.10;44.00
1936;DHT22;969;49.892;10.896;2023-02-05T19:55:31;17.10;44.00
1936;DHT22;969;49.892;10.896;2023-02-05T19:57:57;17.10;44.00
1936;DHT22;969;49.892;10.896;2023-02-05T20:00:23;17.20;44.10
1936;DHT22;969;49.892;10.896;2023-02-05T20:02:55;17.10;44.00
1936;DHT22;969;49.892;10.896;2023-02-05T20:05:21;17.10;44.00
1936;DHT22;969;49.892;10.896;2023-02-05T20:07:51;17.10;44.00
1936;DHT22;969;49.892;10.896;2023-02-05T20:10:17;17.10;44.00
1936;DHT22;969;49.892;10.896;2023-02-05T20:12:43;17.10;44.00
1936;DHT22;969;49.892;10.896;2023-02-05T20:15:10;17.10;44.00
1936;DHT22;969;49.892;10.896;2023-02-05T20:17:35;17.10;44.00
1936;DHT22;969;49.892;10.896;2023-02-05T20:20:01;17.10;44.20
1936;DHT22;969;49.892;10.896;2023-02-05T20:22:27;17.10;44.10
1936;DHT22;969;49.892;10.896;2023-02-05T20:24:52;17.10;44.10
1936;DHT22;969;49.892;10.896;2023-02-05T20:27:19;17.10;44.10
1936;DHT22;969;49.892;10.896;2023-02-05T20:29:45;17.10;44.10
1936;DHT22;969;49.892;10.896;2023-02-05T20:32:29;17.10;44.10
1936;DHT22;969;49.892;10.896;2023-02-05T20:34:55;17.10;44.10
1936;DHT22;969;49.892;10.896;2023-02-05T20:37:21;17.10;44.10
1936;DHT22;969;49.892;10.896;2023-02-05T20:39:47;17.00;44.00
1936;DHT22;969;49.892;10.896;2023-02-05T20:42:13;17.00;44.00
1936;DHT22;969;49.892;10.896;2023-02-05T20:44:40;17.00;44.00
1936;DHT22;969;49.892;10.896;2023-02-05T20:47:09;17.00;44.00
1936;DHT22;969;49.892;10.896;2023-02-05T20:49:36;17.00;44.00
1936;DHT22;969;49.892;10.896;2023-02-05T20:52:03;17.00;44.00
1936;DHT22;969;49.892;10.896;2023-02-05T20:54:29;17.00;44.00
1936;DHT22;969;49.892;10.896;2023-02-05T20:56:54;17.00;44.00
1936;DHT22;969;49.892;10.896;2023-02-05T20:59:24;17.00;44.00
1936;DHT22;969;49.892;10.896;2023-02-05T21:01:50;17.00;44.00
1936;DHT22;969;49.892;10.896;2023-02-05T21:04:16;17.00;44.00
1936;DHT22;969;49.892;10.896;2023-02-05T21:06:41;17.00;44.00
1936;DHT22;969;49.892;10.896;2023-02-05T21:09:08;16.90;43.90
1936;DHT22;969;49.892;10.896;2023-02-05T21:11:35;16.90;43.90
1936;DHT22;969;49.892;10.896;2023-02-05T21:14:00;16.90;43.90
1936;DHT22;969;49.892;10.896;2023-02-05T21:16:27;16.90;44.00
1936;DHT22;969;49.892;10.896;2023-02-05T21:18:53;16.90;43.90
1936;DHT22;969;49.892;10.896;2023-02-05T21:21:25;16.90;43.90
1936;DHT22;969;49.892;10.896;2023-02-05T21:23:56;16.90;43.90
1936;DHT22;969;49.892;10.896;2023-02-05T21:26:27;16.90;43.90
1936;DHT22;969;49.892;10.896;2023-02-05T21:29:01;16.90;43.90
1936;DHT22;969;49.892;10.896;2023-02-05T21:31:29;16.90;43.90
1936;DHT22;969;49.892;10.896;2023-02-05T21:34:08;16.90;43.90
1936;DHT22;969;49.892;10.896;2023-02-05T21:36:35;16.90;43.90
1936;DHT22;969;49.892;10.896;2023-02-05T21:39:00;16.90;43.90
1936;DHT22;969;49.892;10.896;2023-02-05T21:41:26;16.90;44.50
1936;DHT22;969;49.892;10.896;2023-02-05T21:43:54;16.90;44.00
1936;DHT22;969;49.892;10.896;2023-02-05T21:46:20;16.90;43.90
1936;DHT22;969;49.892;10.896;2023-02-05T21:48:49;16.90;43.90
1936;DHT22;969;49.892;10.896;2023-02-05T21:51:16;16.90;43.90
1936;DHT22;969;49.892;10.896;2023-02-05T21:53:42;16.90;43.90
1936;DHT22;969;49.892;10.896;2023-02-05T21:56:10;16.90;43.90
1936;DHT22;969;49.892;10.896;2023-02-05T21:58:37;16.80;43.80
1936;DHT22;969;49.892;10.896;2023-02-05T22:01:18;16.80;43.90
1936;DHT22;969;49.892;10.896;2023-02-05T22:03:49;16.80;43.90
1936;DHT22;969;49.892;10.896;2023-02-05T22:06:15;16.80;44.00
1936;DHT22;969;49.892;10.896;2023-02-05T22:08:41;16.80;44.00
1936;DHT22;969;49.892;10.896;2023-02-05T22:11:09;16.80;44.00
1936;DHT22;969;49.892;10.896;2023-02-05T22:13:37;16.70;44.00
1936;DHT22;969;49.892;10.896;2023-02-05T22:16:06;16.70;44.00
1936;DHT22;969;49.892;10.896;2023-02-05T22:18:33;16.70;44.00
